createdAt,value
2023-04-07T00:01:45.370Z,6.30
2023-04-07T00:06:47.184Z,6.30
2023-04-07T00:11:49.359Z,6.20
2023-04-07T00:16:51.143Z,6.20
2023-04-07T00:21:54.213Z,6.20
2023-04-07T00:26:56.949Z,6.20
2023-04-07T00:31:58.784Z,6.20
2023-04-07T00:37:00.658Z,6.20
2023-04-07T00:42:04.452Z,6.10
2023-04-07T00:47:06.352Z,6.10
2023-04-07T00:52:08.274Z,6.10
2023-04-07T00:57:10.378Z,6.10
2023-04-07T01:02:27.560Z,6.10
2023-04-07T01:07:36.101Z,6.10
2023-04-07T01:12:53.640Z,6.00
2023-04-07T01:18:01.424Z,6.10
2023-04-07T01:23:07.084Z,6.00
2023-04-07T01:28:35.122Z,5.90
2023-04-07T01:33:37.899Z,5.90
2023-04-07T01:38:40.146Z,5.80
2023-04-07T01:43:42.469Z,5.70
2023-04-07T01:48:45.617Z,5.70
2023-04-07T01:53:48.045Z,5.60
2023-04-07T01:58:49.999Z,5.60
2023-04-07T02:03:57.122Z,5.50
2023-04-07T02:09:04.516Z,5.40
2023-04-07T02:14:09.493Z,5.40
2023-04-07T02:19:11.444Z,5.30
2023-04-07T02:24:13.299Z,5.30
2023-04-07T02:29:15.493Z,5.30
2023-04-07T02:34:17.326Z,5.20
2023-04-07T02:39:19.188Z,5.20
2023-04-07T02:44:21.009Z,5.10
2023-04-07T02:49:22.858Z,5.10
2023-04-07T02:54:24.776Z,5.00
2023-04-07T02:59:26.726Z,5.00
2023-04-07T03:04:28.671Z,5.00
2023-04-07T03:09:30.624Z,5.00
2023-04-07T03:14:32.700Z,5.00
2023-04-07T03:19:34.525Z,4.90
2023-04-07T03:24:36.427Z,4.90
2023-04-07T03:29:38.271Z,4.90
2023-04-07T03:34:40.449Z,4.90
2023-04-07T03:39:42.300Z,4.80
2023-04-07T03:44:44.126Z,4.80
2023-04-07T03:49:46.323Z,4.80
2023-04-07T03:54:48.146Z,4.80
2023-04-07T03:59:51.344Z,4.80
2023-04-07T04:04:53.333Z,4.70
2023-04-07T04:09:55.593Z,4.70
2023-04-07T04:14:57.916Z,4.70
2023-04-07T04:19:59.738Z,4.70
2023-04-07T04:25:01.696Z,4.70
2023-04-07T04:30:05.245Z,4.70
2023-04-07T04:35:07.437Z,4.70
2023-04-07T04:40:09.810Z,4.70
2023-04-07T04:45:11.787Z,4.70
2023-04-07T04:50:14.121Z,4.70
2023-04-07T04:55:16.162Z,4.80
2023-04-07T05:00:18.322Z,4.80
2023-04-07T05:05:20.498Z,4.80
2023-04-07T05:10:22.450Z,4.90
2023-04-07T05:15:24.452Z,5.00
2023-04-07T05:20:26.452Z,5.00
2023-04-07T05:25:28.273Z,5.10
2023-04-07T05:30:30.106Z,5.20
2023-04-07T05:35:32.216Z,5.30
2023-04-07T05:40:35.648Z,5.30
2023-04-07T05:45:39.294Z,5.40
2023-04-07T05:50:41.254Z,5.40
2023-04-07T05:55:43.721Z,5.50
2023-04-07T06:00:45.623Z,5.50
2023-04-07T06:05:47.513Z,5.60
2023-04-07T06:10:49.464Z,5.70
2023-04-07T06:15:51.733Z,5.80
2023-04-07T06:20:53.596Z,5.80
2023-04-07T06:25:55.433Z,5.90
2023-04-07T06:30:58.440Z,6.00
2023-04-07T06:36:01.350Z,6.10
2023-04-07T06:41:03.191Z,6.20
2023-04-07T06:46:05.403Z,6.40
2023-04-07T06:51:07.393Z,6.60
2023-04-07T06:56:10.573Z,6.70
2023-04-07T07:01:12.499Z,6.80
2023-04-07T07:06:14.421Z,7.00
2023-04-07T07:11:16.380Z,7.00
2023-04-07T07:16:18.502Z,7.10
2023-04-07T07:21:20.646Z,7.20
2023-04-07T07:26:22.519Z,7.20
2023-04-07T07:31:24.385Z,7.30
2023-04-07T07:36:26.917Z,7.40
2023-04-07T07:41:28.776Z,7.50
2023-04-07T07:46:30.880Z,7.60
2023-04-07T07:51:32.838Z,7.60
2023-04-07T07:56:34.677Z,7.60
2023-04-07T08:01:36.512Z,7.50
2023-04-07T08:06:38.510Z,7.60
2023-04-07T08:11:40.336Z,7.90
2023-04-07T08:16:43.041Z,8.10
2023-04-07T08:21:44.930Z,8.20
2023-04-07T08:26:46.800Z,8.30
2023-04-07T08:31:48.767Z,8.30
2023-04-07T08:36:50.696Z,8.30
2023-04-07T08:41:52.970Z,8.30
2023-04-07T08:46:57.616Z,8.20
2023-04-07T08:52:01.603Z,8.20
2023-04-07T08:57:05.251Z,8.10
2023-04-07T09:02:07.260Z,8.10
2023-04-07T09:07:09.105Z,8.10
2023-04-07T09:12:11.407Z,8.10
2023-04-07T09:17:13.542Z,8.10
2023-04-07T09:22:15.902Z,8.10
2023-04-07T09:27:20.780Z,8.00
2023-04-07T09:32:38.627Z,8.00
2023-04-07T09:37:40.776Z,8.00
2023-04-07T09:42:49.519Z,8.10
2023-04-07T09:47:51.918Z,8.10
2023-04-07T09:52:54.065Z,8.20
2023-04-07T09:57:56.408Z,8.20
2023-04-07T10:02:59.665Z,8.30
2023-04-07T10:08:02.805Z,8.40
2023-04-07T10:13:05.815Z,8.40
2023-04-07T10:18:09.002Z,8.30
2023-04-07T10:23:21.763Z,8.30
2023-04-07T10:28:24.566Z,8.30
2023-04-07T10:33:46.784Z,8.40
2023-04-07T10:39:07.277Z,8.50
2023-04-07T10:44:11.769Z,8.50
2023-04-07T10:49:15.132Z,8.50
2023-04-07T10:54:22.981Z,8.50
2023-04-07T10:59:27.796Z,8.60
2023-04-07T11:04:43.109Z,8.60
2023-04-07T11:09:45.741Z,8.70
2023-04-07T11:14:52.755Z,8.70
2023-04-07T11:19:56.589Z,8.80
2023-04-07T11:24:58.712Z,8.90
2023-04-07T11:30:00.936Z,9.10
2023-04-07T11:35:07.032Z,9.30
2023-04-07T11:40:09.721Z,9.40
2023-04-07T11:45:20.664Z,9.50
2023-04-07T11:50:40.238Z,9.70
2023-04-07T11:55:42.132Z,9.80
2023-04-07T12:00:55.893Z,9.70
2023-04-07T12:05:57.793Z,9.80
2023-04-07T12:11:06.444Z,9.80
2023-04-07T12:16:09.515Z,9.90
2023-04-07T12:21:13.736Z,10.00
2023-04-07T12:26:17.657Z,10.00
2023-04-07T12:31:20.705Z,9.90
2023-04-07T12:36:26.611Z,9.80
2023-04-07T12:41:28.546Z,9.70
2023-04-07T12:46:31.056Z,9.60
2023-04-07T12:51:35.112Z,9.60
2023-04-07T12:56:37.288Z,9.40
2023-04-07T13:01:39.706Z,9.30
2023-04-07T13:06:42.577Z,9.30
2023-04-07T13:11:44.442Z,9.20
2023-04-07T13:16:47.700Z,9.10
2023-04-07T13:21:49.797Z,9.00
2023-04-07T13:26:52.281Z,9.00
2023-04-07T13:31:54.128Z,9.00
2023-04-07T13:36:56.048Z,8.90
2023-04-07T13:41:58.381Z,8.90
2023-04-07T13:47:00.457Z,8.80
2023-04-07T13:52:02.493Z,8.60
2023-04-07T13:57:05.536Z,8.50
2023-04-07T14:02:07.491Z,8.50
2023-04-07T14:07:09.546Z,8.50
2023-04-07T14:12:12.568Z,8.50
2023-04-07T14:17:14.432Z,8.60
2023-04-07T14:22:25.153Z,8.60
2023-04-07T14:27:31.325Z,8.80
2023-04-07T14:32:34.367Z,8.80
2023-04-07T14:37:36.608Z,8.80
2023-04-07T14:42:38.457Z,8.70
2023-04-07T14:47:40.429Z,8.70
2023-04-07T14:52:42.361Z,8.70
2023-04-07T14:57:45.941Z,8.70
2023-04-07T15:02:51.245Z,8.60
2023-04-07T15:07:53.251Z,8.50
2023-04-07T15:12:56.199Z,8.40
2023-04-07T15:17:58.225Z,8.40
2023-04-07T15:23:03.629Z,8.30
2023-04-07T15:28:05.949Z,8.30
2023-04-07T15:33:08.942Z,8.30
2023-04-07T15:38:14.515Z,8.30
2023-04-07T15:43:16.511Z,8.30
2023-04-07T15:48:18.434Z,8.30
2023-04-07T15:53:20.394Z,8.20
2023-04-07T15:58:22.310Z,8.20
2023-04-07T16:03:24.839Z,8.20
2023-04-07T16:08:26.760Z,8.20
2023-04-07T16:13:28.691Z,8.20
2023-04-07T16:18:30.556Z,8.10
2023-04-07T16:23:32.691Z,8.10
2023-04-07T16:28:34.550Z,8.00
2023-04-07T16:33:36.577Z,8.00
2023-04-07T16:38:38.422Z,8.00
2023-04-07T16:43:40.468Z,7.90
2023-04-07T16:48:42.344Z,8.00
2023-04-07T16:53:44.370Z,7.90
2023-04-07T16:58:46.627Z,7.90
2023-04-07T17:03:49.270Z,7.90
2023-04-07T17:08:51.398Z,7.80
2023-04-07T17:13:57.144Z,7.80
2023-04-07T17:18:59.591Z,7.80
2023-04-07T17:24:01.801Z,7.70
2023-04-07T17:29:03.652Z,7.70
2023-04-07T17:34:06.790Z,7.60
2023-04-07T17:39:08.714Z,7.60
2023-04-07T17:44:10.911Z,7.60
2023-04-07T17:49:12.861Z,7.60
2023-04-07T17:54:16.069Z,7.60
2023-04-07T17:59:18.055Z,7.50
2023-04-07T18:04:20.068Z,7.50
2023-04-07T18:09:23.354Z,7.50
2023-04-07T18:14:26.097Z,7.50
2023-04-07T18:19:32.344Z,7.50
2023-04-07T18:24:37.810Z,7.50
2023-04-07T18:29:41.068Z,7.50
2023-04-07T18:34:43.086Z,7.50
2023-04-07T18:39:53.894Z,7.40
2023-04-07T18:44:56.457Z,7.40
2023-04-07T18:49:58.525Z,7.30
2023-04-07T18:55:00.445Z,7.30
2023-04-07T19:00:02.601Z,7.30
2023-04-07T19:05:05.206Z,7.20
2023-04-07T19:10:08.095Z,7.20
2023-04-07T19:15:10.624Z,7.20
2023-04-07T19:20:12.575Z,7.20
2023-04-07T19:25:14.735Z,7.20
2023-04-07T19:30:17.199Z,7.20
2023-04-07T19:35:23.105Z,7.20
2023-04-07T19:40:36.546Z,7.20
2023-04-07T19:45:38.598Z,7.20
2023-04-07T19:50:43.748Z,7.20
2023-04-07T19:55:47.096Z,7.20
2023-04-07T20:00:54.126Z,7.20
2023-04-07T20:05:57.139Z,7.20
2023-04-07T20:10:59.116Z,7.10
2023-04-07T20:16:01.040Z,7.10
2023-04-07T20:21:06.031Z,7.10
2023-04-07T20:26:09.627Z,7.10
2023-04-07T20:31:11.513Z,7.00
2023-04-07T20:36:13.628Z,6.90
2023-04-07T20:41:16.722Z,6.90
2023-04-07T20:46:19.300Z,6.80
2023-04-07T20:51:22.136Z,6.70
2023-04-07T20:56:24.037Z,6.70
2023-04-07T21:01:26.162Z,6.70
2023-04-07T21:06:28.079Z,6.60
2023-04-07T21:11:29.973Z,6.60
2023-04-07T21:16:32.032Z,6.60
2023-04-07T21:21:33.967Z,6.60
2023-04-07T21:26:36.125Z,6.60
2023-04-07T21:31:38.060Z,6.50
2023-04-07T21:36:41.304Z,6.50
2023-04-07T21:41:43.270Z,6.50
2023-04-07T21:46:45.564Z,6.50
2023-04-07T21:51:50.200Z,6.40
2023-04-07T21:56:52.793Z,6.40
2023-04-07T22:01:59.909Z,6.30
2023-04-07T22:07:02.892Z,6.30
2023-04-07T22:12:04.762Z,6.30
2023-04-07T22:17:06.733Z,6.20
2023-04-07T22:22:08.616Z,6.20
2023-04-07T22:27:11.271Z,6.20
2023-04-07T22:32:13.497Z,6.10
2023-04-07T22:37:17.400Z,6.10
2023-04-07T22:42:19.684Z,6.00
2023-04-07T22:47:24.421Z,6.00
2023-04-07T22:52:26.251Z,6.00
2023-04-07T22:57:28.155Z,5.90
2023-04-07T23:02:30.132Z,5.80
2023-04-07T23:07:32.341Z,5.70
2023-04-07T23:12:34.282Z,5.70
2023-04-07T23:17:39.237Z,5.70
2023-04-07T23:22:41.179Z,5.50
2023-04-07T23:27:43.216Z,5.40
2023-04-07T23:32:45.105Z,5.20
2023-04-07T23:37:46.972Z,5.00
2023-04-07T23:42:48.805Z,5.00
2023-04-07T23:47:50.690Z,4.90
2023-04-07T23:52:52.593Z,4.80
2023-04-07T23:57:54.494Z,4.70
